Latest Weather Observations for Inner Beacon

IDQ60801

Issued at 3:05 pm EST Wednesday 26 November 2014 (issued every 30 minutes, with the page automatically refreshed every 10 minutes)

About weather observations | Map of weather stations | Latest weather observations for QLD | Other Formats
Station Details ID: 040926 Name: INNER RECIPROCAL MARKER Lat: -27.26 Lon: 153.24 Height: 20.0 m
Data from the previous 72 hours. | See also: Recent months for locations in Queensland
Date/Time
EST
Temp
°C
App
Temp
°C
Dew
Point
Rel
Hum
%
Delta-T
°C
Wind Press
QNH
hPa
Press
MSL
hPa
Rain
since 9 am
mm
Dir
 
Spd
km/h
Gust
km/h
Spd
kts
Gust
kts
26/03:00pm - - - - - NE 24 28 13 15 - - -
26/02:30pm - - - - - NE 26 30 14 16 - - -
26/02:00pm - - - - - NE 28 33 15 18 - - -
26/01:30pm - - - - - NE 28 32 15 17 - - -
26/01:00pm - - - - - NE 26 30 14 16 - - -
26/12:30pm - - - - - NE 24 28 13 15 - - -
26/12:00pm - - - - - NE 24 26 13 14 - - -
26/11:30am - - - - - NE 22 26 12 14 - - -
26/11:00am - - - - - NE 24 26 13 14 - - -
26/10:30am - - - - - NE 24 28 13 15 - - -
26/10:00am - - - - - NE 24 26 13 14 - - -
26/09:30am - - - - - NE 24 26 13 14 - - -
26/09:00am - - - - - NE 22 26 12 14 - - -
26/08:30am - - - - - NE 22 26 12 14 - - -
26/08:00am - - - - - NE 19 24 10 13 - - -
26/07:30am - - - - - NE 17 19 9 10 - - -
26/07:00am - - - - - NE 17 19 9 10 - - -
26/06:30am - - - - - NE 15 17 8 9 - - -
26/06:00am - - - - - NE 19 22 10 12 - - -
26/05:30am - - - - - NE 17 20 9 11 - - -
26/05:00am - - - - - NE 15 17 8 9 - - -
26/04:30am - - - - - NE 19 22 10 12 - - -
26/04:00am - - - - - NE 19 20 10 11 - - -
26/03:30am - - - - - NE 15 19 8 10 - - -
26/03:00am - - - - - NE 19 22 10 12 - - -
26/02:30am - - - - - NE 20 24 11 13 - - -
26/02:00am - - - - - NE 19 22 10 12 - - -
26/01:30am - - - - - NE 17 19 9 10 - - -
26/01:00am - - - - - NE 19 22 10 12 - - -
26/12:30am - - - - - NE 17 20 9 11 - - -
26/12:00am - - - - - NE 17 19 9 10 - - -
 
Date/Time
EST
Temp
°C
App
Temp
°C
Dew
Point
Rel
Hum
%
Delta-T
°C
Wind Press
QNH
hPa
Press
MSL
hPa
Rain
since 9 am
mm
Dir
 
Spd
km/h
Gust
km/h
Spd
kts
Gust
kts
25/11:30pm - - - - - NE 15 17 8 9 - - -
25/11:00pm - - - - - NE 11 13 6 7 - - -
25/10:30pm - - - - - NE 13 15 7 8 - - -
25/10:00pm - - - - - ENE 11 13 6 7 - - -
25/09:30pm - - - - - NE 15 19 8 10 - - -
25/09:00pm - - - - - NE 15 17 8 9 - - -
25/08:30pm - - - - - NE 22 28 12 15 - - -
25/08:00pm - - - - - NE 30 33 16 18 - - -
25/07:30pm - - - - - NE 37 43 20 23 - - -
25/07:00pm - - - - - NE 35 44 19 24 - - -
25/06:30pm - - - - - NE 35 43 19 23 - - -
25/06:00pm - - - - - NE 37 43 20 23 - - -
25/05:30pm - - - - - NE 35 43 19 23 - - -
25/05:00pm - - - - - NE 35 41 19 22 - - -
25/04:30pm - - - - - NE 33 39 18 21 - - -
25/04:00pm - - - - - NE 33 39 18 21 - - -
25/03:30pm - - - - - NE 33 39 18 21 - - -
25/03:00pm - - - - - NE 35 41 19 22 - - -
25/02:30pm - - - - - NE 37 43 20 23 - - -
25/02:00pm - - - - - NE 35 41 19 22 - - -
25/01:30pm - - - - - NE 33 39 18 21 - - -
25/01:00pm - - - - - NE 33 39 18 21 - - -
25/12:30pm - - - - - NE 33 37 18 20 - - -
25/12:00pm - - - - - NE 32 37 17 20 - - -
25/11:30am - - - - - NE 28 32 15 17 - - -
25/11:00am - - - - - NE 20 24 11 13 - - -
25/10:30am - - - - - NE 19 20 10 11 - - -
25/10:00am - - - - - NE 20 24 11 13 - - -
25/09:30am - - - - - NNW 7 9 4 5 - - -
25/09:00am - - - - - NNW 11 15 6 8 - - -
25/08:30am - - - - - N 13 17 7 9 - - -
25/08:00am - - - - - N 15 17 8 9 - - -
25/07:30am - - - - - NNW 17 20 9 11 - - -
25/07:00am - - - - - N 19 20 10 11 - - -
25/06:30am - - - - - NW 20 24 11 13 - - -
25/06:00am - - - - - NNW 24 28 13 15 - - -
25/05:30am - - - - - N 28 32 15 17 - - -
25/05:00am - - - - - NE 32 35 17 19 - - -
25/04:30am - - - - - N 28 32 15 17 - - -
25/04:00am - - - - - N 32 39 17 21 - - -
25/03:30am - - - - - N 30 35 16 19 - - -
25/03:00am - - - - - N 33 39 18 21 - - -
25/02:30am - - - - - N 33 41 18 22 - - -
25/02:00am - - - - - N 39 46 21 25 - - -
25/01:30am - - - - - N 41 46 22 25 - - -
25/01:00am - - - - - N 41 46 22 25 - - -
25/12:56am - - - - - N 41 46 22 25 - - -
25/12:30am - - - - - NNE 43 50 23 27 - - -
25/12:00am - - - - - NE 44 54 24 29 - - -
 
Date/Time
EST
Temp
°C
App
Temp
°C
Dew
Point
Rel
Hum
%
Delta-T
°C
Wind Press
QNH
hPa
Press
MSL
hPa
Rain
since 9 am
mm
Dir
 
Spd
km/h
Gust
km/h
Spd
kts
Gust
kts
24/11:30pm - - - - - NE 44 52 24 28 - - -
24/11:00pm - - - - - NE 44 56 24 30 - - -
24/10:30pm - - - - - NE 44 50 24 27 - - -
24/10:00pm - - - - - NE 43 52 23 28 - - -
24/09:30pm - - - - - NE 41 50 22 27 - - -
24/09:00pm - - - - - NE 46 54 25 29 - - -
24/08:30pm - - - - - NE 43 48 23 26 - - -
24/08:00pm - - - - - NE 46 52 25 28 - - -
24/07:30pm - - - - - NE 43 50 23 27 - - -
24/07:00pm - - - - - NE 44 52 24 28 - - -
24/06:30pm - - - - - NE 43 48 23 26 - - -
24/06:00pm - - - - - NE 41 50 22 27 - - -
24/05:30pm - - - - - NE 44 50 24 27 - - -
24/05:00pm - - - - - NE 43 50 23 27 - - -
24/04:30pm - - - - - NE 44 50 24 27 - - -
24/04:00pm - - - - - NE 43 48 23 26 - - -
24/03:30pm - - - - - NE 41 46 22 25 - - -
24/03:00pm - - - - - NE 41 46 22 25 - - -
24/02:30pm - - - - - NE 39 46 21 25 - - -
24/02:00pm - - - - - NE 41 46 22 25 - - -
24/01:30pm - - - - - NE 37 44 20 24 - - -
24/01:00pm - - - - - NE 35 41 19 22 - - -
24/12:30pm - - - - - NE 35 41 19 22 - - -
24/12:00pm - - - - - NE 35 39 19 21 - - -
24/11:30am - - - - - NE 32 37 17 20 - - -
24/11:00am - - - - - NE 32 37 17 20 - - -
24/10:30am - - - - - NE 30 35 16 19 - - -
24/10:00am - - - - - NE 26 30 14 16 - - -
24/09:30am - - - - - NE 24 28 13 15 - - -
24/09:00am - - - - - NE 22 28 12 15 - - -
24/08:30am - - - - - NE 24 28 13 15 - - -
24/08:00am - - - - - NNE 22 24 12 13 - - -
24/07:30am - - - - - NNW 17 19 9 10 - - -
24/07:00am - - - - - NNW 17 20 9 11 - - -
24/06:30am - - - - - N 19 22 10 12 - - -
24/06:00am - - - - - N 24 28 13 15 - - -
24/05:30am - - - - - N 26 30 14 16 - - -
24/05:00am - - - - - N 26 32 14 17 - - -
24/04:30am - - - - - N 26 32 14 17 - - -
24/04:00am - - - - - N 28 32 15 17 - - -
24/03:30am - - - - - NNW 24 30 13 16 - - -
24/03:00am - - - - - N 26 30 14 16 - - -
24/02:30am - - - - - NE 28 32 15 17 - - -
24/02:00am - - - - - N 28 33 15 18 - - -
24/01:30am - - - - - NE 33 39 18 21 - - -
24/01:00am - - - - - NE 33 39 18 21 - - -
24/12:30am - - - - - NE 35 43 19 23 - - -
24/12:00am - - - - - NE 35 41 19 22 - - -
 
Date/Time
EST
Temp
°C
App
Temp
°C
Dew
Point
Rel
Hum
%
Delta-T
°C
Wind Press
QNH
hPa
Press
MSL
hPa
Rain
since 9 am
mm
Dir
 
Spd
km/h
Gust
km/h
Spd
kts
Gust
kts
23/11:30pm - - - - - NE 35 43 19 23 - - -
23/11:00pm - - - - - NE 35 43 19 23 - - -
23/10:30pm - - - - - NE 39 48 21 26 - - -
23/10:00pm - - - - - NE 39 46 21 25 - - -
23/09:30pm - - - - - NE 39 44 21 24 - - -
23/09:00pm - - - - - NE 37 43 20 23 - - -
23/08:30pm - - - - - NE 35 41 19 22 - - -
23/08:00pm - - - - - NE 33 39 18 21 - - -
23/07:30pm - - - - - NE 33 37 18 20 - - -
23/07:00pm - - - - - NE 33 39 18 21 - - -
23/06:30pm - - - - - NE 37 44 20 24 - - -
23/06:00pm - - - - - NE 37 46 20 25 - - -
23/05:30pm - - - - - NE 39 44 21 24 - - -
23/05:00pm - - - - - NE 37 44 20 24 - - -
23/04:30pm - - - - - NE 33 43 18 23 - - -
23/04:00pm - - - - - NE 39 46 21 25 - - -
23/03:30pm - - - - - NE 39 44 21 24 - - -

Other Formats:

Comma delimited format used in spreadsheet applications
http://www.bom.gov.au/fwo/IDQ60801/IDQ60801.94590.axf

JavaScript Object Notation format (JSON) in row-major order
http://www.bom.gov.au/fwo/IDQ60801/IDQ60801.94590.json